Wetterdaten: Woche 10.08.15 - 16.08.15 (KW33)
Datum Zeit Temp. Aussen +5cm Feuchte Auss BlattFeu 1 Luftdruck Regen Sonnenschein Regendauer Solar Windben
10.08.2015 00:00 18,4 C 16,1 C 86 % 0 lf 1018,5 hPa 0,0 l/m 0,00 h 0,00 h 0 W/m 3,4 km/h (1 Bft)
10.08.2015 01:00 17,7 C 15,4 C 88 % 0 lf 1018,4 hPa 0,0 l/m 0,00 h 0,00 h 0 W/m 2,3 km/h (1 Bft)
10.08.2015 02:00 17,1 C 15,0 C 89 % 0 lf 1018,1 hPa 0,0 l/m 0,00 h 0,00 h 0 W/m 2,9 km/h (1 Bft)
10.08.2015 03:00 16,8 C 15,2 C 90 % 0 lf 1018,0 hPa 0,0 l/m 0,00 h 0,00 h 0 W/m 1,2 km/h (1 Bft)
10.08.2015 04:00 16,7 C 15,6 C 91 % 0 lf 1017,9 hPa 0,0 l/m 0,00 h 0,00 h 0 W/m 1,4 km/h (1 Bft)
10.08.2015 05:00 16,8 C 15,6 C 92 % 0 lf 1017,3 hPa 0,0 l/m 0,00 h 0,00 h 0 W/m 2,4 km/h (1 Bft)
10.08.2015 06:00 17,1 C 16,0 C 92 % 1 lf 1017,7 hPa 0,0 l/m 0,00 h 0,00 h 10 W/m 2,8 km/h (1 Bft)
10.08.2015 07:00 17,3 C 15,8 C 92 % 10 lf 1017,1 hPa 0,0 l/m 0,00 h 0,60 h 19 W/m 7,6 km/h (2 Bft)
10.08.2015 08:00 17,4 C 15,8 C 93 % 15 lf 1017,0 hPa 0,8 l/m 0,00 h 1,00 h 44 W/m 4,0 km/h (1 Bft)
10.08.2015 09:00 18,0 C 16,6 C 94 % 15 lf 1017,5 hPa 0,0 l/m 0,00 h 0,77 h 107 W/m 3,3 km/h (1 Bft)
10.08.2015 10:00 18,6 C 17,0 C 94 % 8 lf 1017,7 hPa 0,0 l/m 0,00 h 0,03 h 192 W/m 4,2 km/h (1 Bft)
10.08.2015 11:00 20,1 C 18,7 C 88 % 0 lf 1017,7 hPa 0,0 l/m 0,00 h 0,03 h 255 W/m 6,7 km/h (2 Bft)
10.08.2015 12:00 20,8 C 19,4 C 83 % 6 lf 1017,3 hPa 0,0 l/m 0,00 h 0,47 h 157 W/m 5,4 km/h (1 Bft)
10.08.2015 13:00 20,7 C 18,3 C 85 % 11 lf 1017,2 hPa 0,2 l/m 0,00 h 0,70 h 101 W/m 4,6 km/h (1 Bft)
10.08.2015 14:00 20,5 C 18,8 C 85 % 4 lf 1017,1 hPa 0,0 l/m 0,00 h 0,37 h 106 W/m 4,6 km/h (1 Bft)
10.08.2015 15:00 20,4 C 18,0 C 85 % 6 lf 1016,8 hPa 0,0 l/m 0,00 h 0,30 h 121 W/m 7,3 km/h (2 Bft)
10.08.2015 16:00 20,0 C 18,5 C 81 % 1 lf 1016,9 hPa 0,0 l/m 0,00 h 0,33 h 85 W/m 4,5 km/h (1 Bft)
10.08.2015 17:00 19,3 C 16,2 C 84 % 3 lf 1016,7 hPa 0,2 l/m 0,00 h 0,90 h 68 W/m 10,0 km/h (2 Bft)
10.08.2015 18:00 18,1 C 15,1 C 86 % 13 lf 1016,4 hPa 0,6 l/m 0,00 h 0,87 h 37 W/m 8,1 km/h (2 Bft)
10.08.2015 19:00 17,1 C 15,0 C 91 % 15 lf 1016,6 hPa 0,2 l/m 0,00 h 0,80 h 31 W/m 6,6 km/h (2 Bft)
10.08.2015 20:00 16,4 C 14,5 C 93 % 3 lf 1016,6 hPa 0,0 l/m 0,00 h 0,00 h 12 W/m 8,3 km/h (2 Bft)
10.08.2015 21:00 16,0 C 14,3 C 94 % 1 lf 1016,7 hPa 0,0 l/m 0,00 h 0,00 h 0 W/m 3,6 km/h (1 Bft)
10.08.2015 22:00 15,8 C 14,4 C 95 % 2 lf 1017,1 hPa 0,0 l/m 0,00 h 0,00 h 0 W/m 4,2 km/h (1 Bft)
10.08.2015 23:00 15,6 C 13,9 C 96 % 3 lf 1017,5 hPa 0,0 l/m 0,00 h 0,00 h 0 W/m 1,9 km/h (1 Bft)
11.08.2015 00:00 15,3 C 13,8 C 96 % 11 lf 1017,2 hPa 0,0 l/m 0,00 h 0,00 h 0 W/m 1,7 km/h (1 Bft)
11.08.2015 01:00 14,9 C 13,1 C 96 % 15 lf 1016,9 hPa 0,0 l/m 0,00 h 0,00 h 0 W/m 2,2 km/h (1 Bft)
11.08.2015 02:00 14,4 C 12,7 C 96 % 15 lf 1016,8 hPa 0,0 l/m 0,00 h 0,00 h 0 W/m 1,2 km/h (1 Bft)
11.08.2015 03:00 14,0 C 12,4 C 96 % 15 lf 1017,1 hPa 0,0 l/m 0,00 h 0,00 h 0 W/m 1,5 km/h (1 Bft)
11.08.2015 04:00 13,7 C 12,2 C 96 % 15 lf 1017,0 hPa 0,0 l/m 0,00 h 0,00 h 0 W/m 1,7 km/h (1 Bft)
11.08.2015 05:00 13,3 C 11,8 C 96 % 15 lf 1016,9 hPa 0,0 l/m 0,00 h 0,00 h 0 W/m 1,1 km/h (0 Bft)
11.08.2015 06:00 12,9 C 11,8 C 97 % 15 lf 1016,7 hPa 0,0 l/m 0,10 h 0,00 h 21 W/m 0,9 km/h (0 Bft)
11.08.2015 07:00 13,3 C 13,0 C 97 % 15 lf 1016,9 hPa 0,0 l/m 0,77 h 0,00 h 124 W/m 0,9 km/h (0 Bft)
11.08.2015 08:00 15,4 C 14,8 C 98 % 15 lf 1017,4 hPa 0,0 l/m 0,57 h 0,00 h 195 W/m 2,6 km/h (1 Bft)
11.08.2015 09:00 17,4 C 16,3 C 99 % 7 lf 1017,8 hPa 0,0 l/m 0,97 h 0,00 h 372 W/m 4,5 km/h (1 Bft)
11.08.2015 10:00 20,4 C 19,5 C 95 % 0 lf 1018,2 hPa 0,0 l/m 0,97 h 0,00 h 550 W/m 5,9 km/h (2 Bft)
11.08.2015 11:00 22,8 C 21,4 C 80 % 0 lf 1018,6 hPa 0,0 l/m 0,83 h 0,00 h 486 W/m 7,8 km/h (2 Bft)
11.08.2015 12:00 24,6 C 23,8 C 74 % 0 lf 1018,7 hPa 0,0 l/m 0,83 h 0,00 h 539 W/m 7,8 km/h (2 Bft)
11.08.2015 13:00 25,7 C 24,6 C 70 % 0 lf 1018,4 hPa 0,0 l/m 0,80 h 0,00 h 649 W/m 9,8 km/h (2 Bft)
11.08.2015 14:00 26,4 C 24,9 C 68 % 0 lf 1018,4 hPa 0,0 l/m 0,80 h 0,00 h 679 W/m 10,5 km/h (2 Bft)
11.08.2015 15:00 26,6 C 25,1 C 67 % 0 lf 1018,2 hPa 0,0 l/m 0,63 h 0,00 h 512 W/m 14,4 km/h (3 Bft)
11.08.2015 16:00 26,6 C 25,4 C 65 % 0 lf 1017,9 hPa 0,0 l/m 0,80 h 0,00 h 419 W/m 13,7 km/h (3 Bft)
11.08.2015 17:00 26,6 C 24,8 C 66 % 0 lf 1017,9 hPa 0,0 l/m 0,87 h 0,00 h 356 W/m 14,3 km/h (3 Bft)
11.08.2015 18:00 26,0 C 24,4 C 67 % 0 lf 1017,9 hPa 0,0 l/m 0,87 h 0,00 h 222 W/m 13,6 km/h (3 Bft)
11.08.2015 19:00 25,6 C 23,8 C 68 % 0 lf 1018,1 hPa 0,0 l/m 0,47 h 0,00 h 112 W/m 13,5 km/h (3 Bft)
11.08.2015 20:00 24,5 C 22,3 C 73 % 0 lf 1018,5 hPa 0,0 l/m 0,00 h 0,00 h 21 W/m 10,9 km/h (2 Bft)
11.08.2015 21:00 23,2 C 20,9 C 78 % 0 lf 1019,0 hPa 0,0 l/m 0,00 h 0,00 h 1 W/m 9,6 km/h (2 Bft)
11.08.2015 22:00 22,1 C 19,5 C 82 % 0 lf 1019,4 hPa 0,0 l/m 0,00 h 0,00 h 0 W/m 6,8 km/h (2 Bft)
11.08.2015 23:00 20,9 C 17,5 C 84 % 0 lf 1019,7 hPa 0,0 l/m 0,00 h 0,00 h 0 W/m 4,2 km/h (1 Bft)
12.08.2015 00:00 19,6 C 16,8 C 88 % 1 lf 1019,8 hPa 0,0 l/m 0,00 h 0,00 h 0 W/m 4,7 km/h (1 Bft)
12.08.2015 01:00 19,3 C 17,6 C 91 % 0 lf 1019,5 hPa 0,0 l/m 0,00 h 0,00 h 0 W/m 4,9 km/h (1 Bft)
12.08.2015 02:00 19,1 C 17,2 C 91 % 1 lf 1019,5 hPa 0,0 l/m 0,00 h 0,00 h 0 W/m 3,5 km/h (1 Bft)
12.08.2015 03:00 18,9 C 17,2 C 92 % 1 lf 1019,7 hPa 0,0 l/m 0,00 h 0,00 h 0 W/m 4,4 km/h (1 Bft)
12.08.2015 04:00 18,9 C 17,4 C 94 % 1 lf 1019,5 hPa 0,0 l/m 0,00 h 0,00 h 0 W/m 7,7 km/h (2 Bft)
12.08.2015 05:00 18,8 C 17,3 C 95 % 1 lf 1019,7 hPa 0,0 l/m 0,00 h 0,00 h 0 W/m 7,6 km/h (2 Bft)
12.08.2015 06:00 18,7 C 17,3 C 95 % 1 lf 1020,0 hPa 0,0 l/m 0,00 h 0,00 h 19 W/m 9,5 km/h (2 Bft)
12.08.2015 07:00 18,8 C 17,8 C 96 % 0 lf 1020,4 hPa 0,0 l/m 0,00 h 0,00 h 61 W/m 11,5 km/h (2 Bft)
12.08.2015 08:00 19,1 C 18,6 C 96 % 0 lf 1020,7 hPa 0,0 l/m 0,27 h 0,00 h 142 W/m 16,0 km/h (3 Bft)
12.08.2015 09:00 20,2 C 19,9 C 93 % 0 lf 1021,1 hPa 0,0 l/m 0,50 h 0,00 h 228 W/m 15,7 km/h (3 Bft)
12.08.2015 10:00 21,4 C 21,2 C 88 % 0 lf 1021,1 hPa 0,0 l/m 0,70 h 0,00 h 349 W/m 18,7 km/h (3 Bft)
12.08.2015 11:00 22,4 C 22,2 C 84 % 0 lf 1021,2 hPa 0,0 l/m 0,83 h 0,00 h 458 W/m 18,0 km/h (3 Bft)
12.08.2015 12:00 23,7 C 23,4 C 81 % 0 lf 1021,3 hPa 0,0 l/m 0,80 h 0,00 h 499 W/m 18,4 km/h (3 Bft)
12.08.2015 13:00 24,4 C 23,9 C 78 % 0 lf 1021,0 hPa 0,0 l/m 0,87 h 0,00 h 614 W/m 20,4 km/h (4 Bft)
12.08.2015 14:00 26,1 C 25,4 C 73 % 0 lf 1020,6 hPa 0,0 l/m 0,87 h 0,00 h 639 W/m 20,9 km/h (4 Bft)
12.08.2015 15:00 27,8 C 26,5 C 67 % 0 lf 1020,0 hPa 0,0 l/m 0,93 h 0,00 h 621 W/m 21,0 km/h (4 Bft)
12.08.2015 16:00 27,7 C 26,3 C 67 % 0 lf 1019,9 hPa 0,0 l/m 0,93 h 0,00 h 384 W/m 18,7 km/h (3 Bft)
12.08.2015 17:00 27,2 C 25,6 C 68 % 0 lf 1019,9 hPa 0,0 l/m 0,32 h 0,00 h 259 W/m 15,5 km/h (3 Bft)
12.08.2015 18:00 26,2 C 24,8 C 71 % 0 lf 1019,5 hPa 0,0 l/m 0,52 h 0,00 h 192 W/m 19,8 km/h (3 Bft)
12.08.2015 19:00 25,4 C 23,5 C 74 % 0 lf 1019,6 hPa 0,0 l/m 0,00 h 0,00 h 79 W/m 18,5 km/h (3 Bft)
12.08.2015 20:00 24,3 C 22,5 C 77 % 0 lf 1019,8 hPa 0,0 l/m 0,00 h 0,00 h 25 W/m 17,2 km/h (3 Bft)
12.08.2015 21:00 23,3 C 21,2 C 79 % 0 lf 1020,0 hPa 0,0 l/m 0,00 h 0,00 h 4 W/m 13,5 km/h (3 Bft)
12.08.2015 22:00 22,3 C 20,5 C 82 % 0 lf 1020,0 hPa 0,0 l/m 0,00 h 0,00 h 0 W/m 14,0 km/h (3 Bft)
12.08.2015 23:00 21,6 C 19,7 C 84 % 0 lf 1020,0 hPa 0,0 l/m 0,00 h 0,00 h 0 W/m 12,8 km/h (3 Bft)
13.08.2015 00:00 20,8 C 19,1 C 86 % 0 lf 1019,8 hPa 0,0 l/m 0,00 h 0,00 h 0 W/m 10,6 km/h (2 Bft)
13.08.2015 01:00 20,0 C 18,1 C 88 % 0 lf 1019,4 hPa 0,0 l/m 0,00 h 0,00 h 0 W/m 7,5 km/h (2 Bft)
13.08.2015 02:00 19,2 C 17,6 C 91 % 0 lf 1019,0 hPa 0,0 l/m 0,00 h 0,00 h 0 W/m 7,3 km/h (2 Bft)
13.08.2015 03:00 18,8 C 17,2 C 93 % 1 lf 1018,5 hPa 0,0 l/m 0,00 h 0,00 h 0 W/m 9,0 km/h (2 Bft)
13.08.2015 04:00 18,6 C 17,2 C 94 % 1 lf 1018,0 hPa 0,0 l/m 0,00 h 0,00 h 0 W/m 11,1 km/h (2 Bft)
13.08.2015 05:00 18,3 C 16,8 C 95 % 1 lf 1017,5 hPa 0,0 l/m 0,00 h 0,00 h 0 W/m 9,9 km/h (2 Bft)
13.08.2015 06:00 18,1 C 16,7 C 95 % 1 lf 1017,6 hPa 0,0 l/m 0,00 h 0,00 h 17 W/m 9,0 km/h (2 Bft)
13.08.2015 07:00 18,1 C 17,2 C 96 % 1 lf 1017,4 hPa 0,0 l/m 0,47 h 0,00 h 94 W/m 12,9 km/h (3 Bft)
13.08.2015 08:00 18,8 C 18,3 C 96 % 0 lf 1016,9 hPa 0,0 l/m 1,00 h 0,00 h 249 W/m 16,2 km/h (3 Bft)
13.08.2015 09:00 20,8 C 20,5 C 91 % 0 lf 1016,4 hPa 0,0 l/m 1,00 h 0,00 h 414 W/m 16,4 km/h (3 Bft)
13.08.2015 10:00 24,0 C 24,7 C 80 % 0 lf 1015,8 hPa 0,0 l/m 1,00 h 0,00 h 565 W/m 15,5 km/h (3 Bft)
13.08.2015 11:00 26,3 C 25,6 C 72 % 0 lf 1015,3 hPa 0,0 l/m 1,00 h 0,00 h 679 W/m 14,4 km/h (3 Bft)
13.08.2015 12:00 28,2 C 26,9 C 67 % 0 lf 1014,4 hPa 0,0 l/m 0,92 h 0,00 h 644 W/m 19,0 km/h (3 Bft)
13.08.2015 13:00 29,5 C 27,9 C 64 % 0 lf 1013,9 hPa 0,0 l/m 1,00 h 0,00 h 745 W/m 19,3 km/h (3 Bft)
13.08.2015 14:00 31,0 C 28,8 C 62 % 0 lf 1012,9 hPa 0,0 l/m 1,00 h 0,00 h 751 W/m 19,6 km/h (3 Bft)
13.08.2015 15:00 31,8 C 29,3 C 61 % 0 lf 1012,3 hPa 0,0 l/m 1,00 h 0,00 h 628 W/m 18,1 km/h (3 Bft)
13.08.2015 16:00 32,1 C 30,5 C 61 % 0 lf 1011,4 hPa 0,0 l/m 1,00 h 0,00 h 543 W/m 21,7 km/h (4 Bft)
13.08.2015 17:00 31,6 C 28,8 C 62 % 0 lf 1010,2 hPa 0,0 l/m 1,00 h 0,00 h 372 W/m 25,5 km/h (4 Bft)
13.08.2015 18:00 30,7 C 28,1 C 65 % 0 lf 1009,6 hPa 0,0 l/m 0,60 h 0,00 h 229 W/m 23,0 km/h (4 Bft)
13.08.2015 19:00 29,8 C 27,2 C 67 % 0 lf 1008,9 hPa 0,0 l/m 0,00 h 0,00 h 76 W/m 19,6 km/h (3 Bft)
13.08.2015 20:00 28,8 C 25,9 C 69 % 0 lf 1008,9 hPa 0,0 l/m 0,00 h 0,00 h 15 W/m 13,7 km/h (3 Bft)
13.08.2015 21:00 27,8 C 24,7 C 72 % 0 lf 1008,8 hPa 0,0 l/m 0,00 h 0,00 h 0 W/m 13,8 km/h (3 Bft)
13.08.2015 22:00 27,0 C 24,3 C 74 % 0 lf 1008,4 hPa 0,0 l/m 0,00 h 0,00 h 0 W/m 13,1 km/h (3 Bft)
13.08.2015 23:00 26,2 C 23,1 C 76 % 0 lf 1008,0 hPa 0,0 l/m 0,00 h 0,00 h 0 W/m 5,5 km/h (1 Bft)
14.08.2015 00:00 25,1 C 22,6 C 80 % 0 lf 1008,2 hPa 0,0 l/m 0,00 h 0,00 h 0 W/m 8,1 km/h (2 Bft)
14.08.2015 01:00 24,1 C 21,4 C 82 % 3 lf 1008,6 hPa 0,2 l/m 0,00 h 0,17 h 0 W/m 14,7 km/h (3 Bft)
14.08.2015 02:00 21,6 C 18,3 C 87 % 15 lf 1009,0 hPa 1,0 l/m 0,00 h 0,87 h 0 W/m 12,5 km/h (3 Bft)
14.08.2015 03:00 20,4 C 18,2 C 92 % 15 lf 1008,7 hPa 0,0 l/m 0,00 h 0,00 h 0 W/m 11,3 km/h (2 Bft)
14.08.2015 04:00 20,1 C 18,1 C 93 % 15 lf 1008,5 hPa 0,0 l/m 0,00 h 0,07 h 0 W/m 5,0 km/h (1 Bft)
14.08.2015 05:00 19,9 C 18,3 C 95 % 15 lf 1008,3 hPa 0,0 l/m 0,00 h 0,43 h 0 W/m 5,5 km/h (1 Bft)
14.08.2015 06:00 19,8 C 18,0 C 96 % 15 lf 1008,1 hPa 0,0 l/m 0,00 h 0,00 h 13 W/m 5,9 km/h (2 Bft)
14.08.2015 07:00 19,8 C 18,3 C 96 % 15 lf 1008,1 hPa 0,0 l/m 0,00 h 0,00 h 56 W/m 6,4 km/h (2 Bft)
14.08.2015 08:00 20,2 C 18,9 C 97 % 8 lf 1008,2 hPa 0,0 l/m 0,00 h 0,00 h 102 W/m 9,0 km/h (2 Bft)
14.08.2015 09:00 21,1 C 19,3 C 93 % 0 lf 1008,6 hPa 0,0 l/m 0,73 h 0,00 h 341 W/m 19,0 km/h (3 Bft)
14.08.2015 10:00 22,6 C 19,8 C 84 % 0 lf 1008,7 hPa 0,0 l/m 0,40 h 0,00 h 338 W/m 17,0 km/h (3 Bft)
14.08.2015 11:00 24,1 C 23,4 C 77 % 0 lf 1008,6 hPa 0,0 l/m 0,93 h 0,00 h 478 W/m 16,4 km/h (3 Bft)
14.08.2015 12:00 25,9 C 25,3 C 71 % 0 lf 1008,3 hPa 0,0 l/m 0,68 h 0,00 h 558 W/m 17,1 km/h (3 Bft)
14.08.2015 13:00 26,9 C 25,7 C 67 % 0 lf 1008,0 hPa 0,0 l/m 0,80 h 0,00 h 531 W/m 14,4 km/h (3 Bft)
14.08.2015 14:00 28,1 C 26,3 C 63 % 0 lf 1007,5 hPa 0,0 l/m 0,57 h 0,00 h 564 W/m 13,5 km/h (3 Bft)
14.08.2015 15:00 28,4 C 26,9 C 61 % 0 lf 1007,1 hPa 0,0 l/m 0,57 h 0,00 h 449 W/m 14,4 km/h (3 Bft)
14.08.2015 16:00 27,5 C 25,4 C 62 % 0 lf 1006,6 hPa 0,0 l/m 0,07 h 0,00 h 187 W/m 11,4 km/h (2 Bft)
14.08.2015 17:00 26,3 C 24,1 C 66 % 0 lf 1006,4 hPa 0,0 l/m 0,00 h 0,07 h 127 W/m 12,2 km/h (2 Bft)
14.08.2015 18:00 25,5 C 23,8 C 71 % 0 lf 1006,3 hPa 0,0 l/m 0,60 h 0,00 h 228 W/m 10,0 km/h (2 Bft)
14.08.2015 19:00 25,2 C 23,1 C 71 % 0 lf 1006,1 hPa 0,0 l/m 0,53 h 0,00 h 125 W/m 5,9 km/h (2 Bft)
14.08.2015 20:00 24,6 C 21,5 C 73 % 0 lf 1006,1 hPa 0,0 l/m 0,00 h 0,00 h 20 W/m 4,1 km/h (1 Bft)
14.08.2015 21:00 23,1 C 19,2 C 78 % 0 lf 1006,3 hPa 0,0 l/m 0,00 h 0,00 h 3 W/m 1,8 km/h (1 Bft)
14.08.2015 22:00 21,4 C 18,1 C 83 % 0 lf 1006,2 hPa 0,0 l/m 0,00 h 0,00 h 0 W/m 2,0 km/h (1 Bft)
14.08.2015 23:00 20,1 C 17,5 C 87 % 1 lf 1006,0 hPa 0,0 l/m 0,00 h 0,00 h 0 W/m 1,1 km/h (1 Bft)
15.08.2015 00:00 19,4 C 17,8 C 89 % 1 lf 1006,0 hPa 0,0 l/m 0,00 h 0,00 h 0 W/m 9,8 km/h (2 Bft)
15.08.2015 01:00 19,7 C 18,0 C 85 % 0 lf 1005,7 hPa 0,0 l/m 0,00 h 0,00 h 0 W/m 7,4 km/h (2 Bft)
15.08.2015 02:00 19,5 C 17,9 C 85 % 0 lf 1005,8 hPa 0,0 l/m 0,00 h 0,00 h 0 W/m 5,0 km/h (1 Bft)
15.08.2015 03:00 19,1 C 17,3 C 84 % 0 lf 1005,9 hPa 0,0 l/m 0,00 h 0,00 h 0 W/m 9,3 km/h (2 Bft)
15.08.2015 04:00 18,5 C 15,9 C 86 % 0 lf 1006,2 hPa 0,0 l/m 0,00 h 0,00 h 0 W/m 3,8 km/h (1 Bft)
15.08.2015 05:00 17,5 C 15,1 C 88 % 1 lf 1006,3 hPa 0,0 l/m 0,00 h 0,00 h 0 W/m 4,5 km/h (1 Bft)
15.08.2015 06:00 16,9 C 15,8 C 92 % 1 lf 1006,3 hPa 0,0 l/m 0,07 h 0,00 h 17 W/m 8,2 km/h (2 Bft)
15.08.2015 07:00 17,6 C 17,4 C 93 % 0 lf 1006,7 hPa 0,0 l/m 0,30 h 0,00 h 74 W/m 11,6 km/h (2 Bft)
15.08.2015 08:00 18,9 C 18,6 C 89 % 0 lf 1006,9 hPa 0,0 l/m 0,13 h 0,00 h 133 W/m 12,1 km/h (2 Bft)
15.08.2015 09:00 20,5 C 20,0 C 84 % 0 lf 1007,0 hPa 0,0 l/m 0,73 h 0,00 h 293 W/m 13,6 km/h (3 Bft)
15.08.2015 10:00 22,0 C 21,1 C 79 % 0 lf 1007,3 hPa 0,0 l/m 0,20 h 0,00 h 223 W/m 11,6 km/h (2 Bft)
15.08.2015 11:00 21,9 C 20,7 C 79 % 0 lf 1007,5 hPa 0,0 l/m 0,00 h 0,00 h 146 W/m 7,9 km/h (2 Bft)
15.08.2015 12:00 22,2 C 20,5 C 80 % 1 lf 1007,6 hPa 0,0 l/m 0,00 h 0,13 h 168 W/m 4,5 km/h (1 Bft)
15.08.2015 13:00 22,9 C 22,2 C 77 % 0 lf 1007,7 hPa 0,0 l/m 0,00 h 0,07 h 220 W/m 6,8 km/h (2 Bft)
15.08.2015 14:00 23,3 C 22,7 C 74 % 0 lf 1007,9 hPa 0,0 l/m 0,17 h 0,00 h 278 W/m 9,7 km/h (2 Bft)
15.08.2015 15:00 23,2 C 21,2 C 76 % 0 lf 1007,9 hPa 0,0 l/m 0,00 h 0,07 h 144 W/m 9,6 km/h (2 Bft)
15.08.2015 16:00 22,4 C 21,1 C 81 % 0 lf 1008,0 hPa 0,0 l/m 0,00 h 0,00 h 131 W/m 6,0 km/h (2 Bft)
15.08.2015 17:00 21,8 C 19,2 C 82 % 7 lf 1008,4 hPa 0,2 l/m 0,00 h 0,67 h 91 W/m 12,4 km/h (3 Bft)
15.08.2015 18:00 20,2 C 17,6 C 90 % 15 lf 1008,8 hPa 1,0 l/m 0,00 h 0,85 h 62 W/m 14,4 km/h (3 Bft)
15.08.2015 19:00 18,6 C 16,5 C 93 % 15 lf 1009,2 hPa 0,0 l/m 0,00 h 0,00 h 36 W/m 19,1 km/h (3 Bft)
15.08.2015 20:00 17,7 C 16,1 C 94 % 15 lf 1010,0 hPa 0,0 l/m 0,00 h 0,07 h 8 W/m 19,1 km/h (3 Bft)
15.08.2015 21:00 17,3 C 15,6 C 95 % 15 lf 1010,8 hPa 0,0 l/m 0,00 h 0,60 h 0 W/m 16,6 km/h (3 Bft)
15.08.2015 22:00 17,0 C 15,6 C 95 % 15 lf 1011,3 hPa 2,2 l/m 0,00 h 1,00 h 0 W/m 16,0 km/h (3 Bft)
15.08.2015 23:00 16,5 C 15,1 C 96 % 15 lf 1011,7 hPa 2,6 l/m 0,00 h 1,00 h 0 W/m 16,8 km/h (3 Bft)
16.08.2015 00:00 16,1 C 14,8 C 97 % 15 lf 1011,9 hPa 1,0 l/m 0,00 h 0,98 h 0 W/m 22,2 km/h (4 Bft)
16.08.2015 01:00 15,8 C 14,4 C 97 % 15 lf 1012,0 hPa 2,6 l/m 0,00 h 1,00 h 0 W/m 20,8 km/h (4 Bft)
16.08.2015 02:00 15,7 C 14,4 C 98 % 15 lf 1012,4 hPa 4,2 l/m 0,00 h 1,00 h 0 W/m 20,0 km/h (4 Bft)
16.08.2015 03:00 15,5 C 14,4 C 98 % 15 lf 1012,5 hPa 1,2 l/m 0,00 h 0,97 h 0 W/m 15,9 km/h (3 Bft)
16.08.2015 04:00 15,2 C 13,9 C 98 % 15 lf 1012,6 hPa 0,2 l/m 0,00 h 0,93 h 0 W/m 15,2 km/h (3 Bft)
16.08.2015 05:00 15,1 C 13,9 C 98 % 15 lf 1012,7 hPa 0,2 l/m 0,00 h 0,40 h 0 W/m 12,8 km/h (3 Bft)
16.08.2015 06:00 15,0 C 13,9 C 98 % 15 lf 1012,7 hPa 0,0 l/m 0,00 h 0,00 h 7 W/m 12,1 km/h (2 Bft)
16.08.2015 07:00 15,1 C 14,0 C 99 % 15 lf 1012,9 hPa 0,2 l/m 0,00 h 0,77 h 17 W/m 13,8 km/h (3 Bft)
16.08.2015 08:00 15,1 C 13,9 C 99 % 15 lf 1013,3 hPa 0,6 l/m 0,00 h 0,80 h 38 W/m 16,3 km/h (3 Bft)
16.08.2015 09:00 15,0 C 13,9 C 99 % 15 lf 1013,6 hPa 1,2 l/m 0,00 h 1,00 h 67 W/m 16,1 km/h (3 Bft)
16.08.2015 10:00 14,9 C 13,9 C 99 % 15 lf 1013,7 hPa 1,0 l/m 0,00 h 1,00 h 90 W/m 18,6 km/h (3 Bft)
16.08.2015 11:00 15,1 C 14,3 C 99 % 15 lf 1013,9 hPa 0,6 l/m 0,00 h 1,00 h 148 W/m 18,3 km/h (3 Bft)
16.08.2015 12:00 15,5 C 14,5 C 99 % 15 lf 1013,9 hPa 0,2 l/m 0,00 h 0,98 h 149 W/m 18,7 km/h (3 Bft)
16.08.2015 13:00 15,4 C 14,2 C 99 % 15 lf 1014,0 hPa 0,0 l/m 0,00 h 0,83 h 121 W/m 18,7 km/h (3 Bft)
16.08.2015 14:00 15,4 C 14,4 C 98 % 15 lf 1014,0 hPa 0,4 l/m 0,00 h 1,00 h 165 W/m 18,3 km/h (3 Bft)
16.08.2015 15:00 15,5 C 14,4 C 98 % 15 lf 1014,0 hPa 0,6 l/m 0,00 h 1,00 h 139 W/m 19,9 km/h (4 Bft)
16.08.2015 16:00 15,5 C 14,2 C 98 % 15 lf 1013,9 hPa 0,8 l/m 0,00 h 1,00 h 86 W/m 16,5 km/h (3 Bft)
16.08.2015 17:00 15,3 C 14,0 C 98 % 15 lf 1013,8 hPa 0,8 l/m 0,00 h 1,00 h 61 W/m 15,5 km/h (3 Bft)
16.08.2015 18:00 14,8 C 13,6 C 98 % 15 lf 1013,7 hPa 1,0 l/m 0,00 h 0,97 h 35 W/m 19,2 km/h (3 Bft)
16.08.2015 19:00 14,6 C 13,3 C 98 % 15 lf 1013,7 hPa 2,0 l/m 0,00 h 1,00 h 13 W/m 17,8 km/h (3 Bft)
16.08.2015 20:00 14,3 C 13,3 C 98 % 15 lf 1013,9 hPa 1,4 l/m 0,00 h 1,00 h 6 W/m 18,0 km/h (3 Bft)
16.08.2015 21:00 14,2 C 12,9 C 98 % 15 lf 1014,3 hPa 0,4 l/m 0,00 h 0,87 h 0 W/m 18,7 km/h (3 Bft)
16.08.2015 22:00 14,0 C 12,8 C 98 % 15 lf 1014,5 hPa 0,8 l/m 0,00 h 1,00 h 0 W/m 18,0 km/h (3 Bft)
16.08.2015 23:00 13,8 C 12,8 C 98 % 15 lf 1014,4 hPa 0,8 l/m 0,00 h 1,00 h 0 W/m 19,0 km/h (3 Bft)
Min-Datum _ 11.08.15 11.08.15 14.08.15 10.08.15 15.08.15 - - - - 10.08.15
_ Min-Zeit 06:26 05:06 15:12 00:00 01:48 - - - - 00:08
Minimum _ 12,8 C 11,7 C 58 % 0 lf 1005,5 hPa - - - - 0,0 km/h (0 Bft)
Max-Datum _ 13.08.15 13.08.15 11.08.15 10.08.15 12.08.15 16.08.15 11.08.15 10.08.15 11.08.15 13.08.15
_ Max-Zeit 16:32 16:24 08:34 07:24 11:50 02:10 06:34 07:22 13:02 17:14
Maximum _ 32,2 C 32,2 C 99 % 15 lf 1021,4 hPa 4,2 l/m 0,03 h 0,03 h 967 W/m 37,7 km/h
O-NO (5 Bft)
Durchschnitt _ 20,5 C 18,9 C 86 % 5 lf 1014,1 hPa #31,4 l/m #36:16 h #34:49 h 227 W/m 11,1 km/h (2 Bft)
© 2015 W. Hausmann